Main page
METAR-TAF:

METAR-TAF

Airports :

Gonabad, Iran

latitude: 34-22-51N, longitude: 58-38-23E, elevation: 1100 m

Current weather observation

The report was made 25 minutes ago, at 06:00 UTC
Wind 10 kt from the East/Southeast
Temperature 7°C
Humidity 87%
Pressure 1026 hPa

METAR: OIMD 220600Z AUTO 11010KT //// // ////// 07/05 Q1026

Time: 09:55 (06:25 UTC)


TAF: missing

Weather observations and forecasts of more than 4000 airports (METAR and TAF reports).

The available stations are represented by yellow and red dots on the map.

Hover mouse over dot to see the name of the station.

Then click to see weather observations and forecasts.

To change the map : click on the green buttons with a black cross to zoom in, on the green button with a dash to zoom out, or on the green arrows for adjacent maps.


METAR-TAF: